sensor_id;sensor_type;location;lat;lon;timestamp;P1;durP1;ratioP1;P2;durP2;ratioP2
38123;SDS011;23934;47.998;9.832;2023-04-03T00:01:14;0.43;;;0.43;;
38123;SDS011;23934;47.998;9.832;2023-04-03T00:03:40;0.00;;;0.00;;
38123;SDS011;23934;47.998;9.832;2023-04-03T00:06:06;0.20;;;0.20;;
38123;SDS011;23934;47.998;9.832;2023-04-03T00:08:33;0.30;;;0.20;;
38123;SDS011;23934;47.998;9.832;2023-04-03T00:10:59;0.30;;;0.30;;
38123;SDS011;23934;47.998;9.832;2023-04-03T00:13:26;0.47;;;0.47;;
38123;SDS011;23934;47.998;9.832;2023-04-03T00:15:52;0.32;;;0.32;;
38123;SDS011;23934;47.998;9.832;2023-04-03T00:18:18;0.10;;;0.10;;
38123;SDS011;23934;47.998;9.832;2023-04-03T00:20:44;0.00;;;0.00;;
38123;SDS011;23934;47.998;9.832;2023-04-03T00:23:10;0.00;;;0.00;;
38123;SDS011;23934;47.998;9.832;2023-04-03T00:25:36;0.00;;;0.00;;
38123;SDS011;23934;47.998;9.832;2023-04-03T00:28:02;0.00;;;0.00;;
38123;SDS011;23934;47.998;9.832;2023-04-03T00:30:29;16.90;;;1.95;;
38123;SDS011;23934;47.998;9.832;2023-04-03T00:32:55;1.55;;;1.45;;
38123;SDS011;23934;47.998;9.832;2023-04-03T00:35:21;0.00;;;0.00;;
38123;SDS011;23934;47.998;9.832;2023-04-03T00:37:47;4.40;;;1.45;;
38123;SDS011;23934;47.998;9.832;2023-04-03T00:40:14;0.00;;;0.00;;
38123;SDS011;23934;47.998;9.832;2023-04-03T00:42:41;1.83;;;1.13;;
38123;SDS011;23934;47.998;9.832;2023-04-03T00:47:36;0.00;;;0.00;;
38123;SDS011;23934;47.998;9.832;2023-04-03T00:50:03;0.00;;;0.00;;
38123;SDS011;23934;47.998;9.832;2023-04-03T00:52:29;0.55;;;0.55;;
38123;SDS011;23934;47.998;9.832;2023-04-03T00:54:57;0.30;;;0.30;;
38123;SDS011;23934;47.998;9.832;2023-04-03T00:57:23;0.00;;;0.00;;
38123;SDS011;23934;47.998;9.832;2023-04-03T00:59:51;0.08;;;0.08;;
38123;SDS011;23934;47.998;9.832;2023-04-03T01:02:17;0.00;;;0.00;;
38123;SDS011;23934;47.998;9.832;2023-04-03T01:04:43;0.00;;;0.00;;
38123;SDS011;23934;47.998;9.832;2023-04-03T01:07:12;0.20;;;0.20;;
38123;SDS011;23934;47.998;9.832;2023-04-03T01:09:40;0.00;;;0.00;;
38123;SDS011;23934;47.998;9.832;2023-04-03T01:12:16;0.00;;;0.00;;
38123;SDS011;23934;47.998;9.832;2023-04-03T01:14:43;0.47;;;0.47;;
38123;SDS011;23934;47.998;9.832;2023-04-03T01:19:56;0.00;;;0.00;;
38123;SDS011;23934;47.998;9.832;2023-04-03T01:22:29;0.90;;;0.65;;
38123;SDS011;23934;47.998;9.832;2023-04-03T01:25:00;0.00;;;0.00;;
38123;SDS011;23934;47.998;9.832;2023-04-03T01:27:26;0.00;;;0.00;;
38123;SDS011;23934;47.998;9.832;2023-04-03T01:29:52;0.85;;;0.52;;
38123;SDS011;23934;47.998;9.832;2023-04-03T01:32:18;0.47;;;0.47;;
38123;SDS011;23934;47.998;9.832;2023-04-03T01:34:44;0.08;;;0.08;;
38123;SDS011;23934;47.998;9.832;2023-04-03T01:37:10;0.10;;;0.10;;
38123;SDS011;23934;47.998;9.832;2023-04-03T01:39:36;0.00;;;0.00;;
38123;SDS011;23934;47.998;9.832;2023-04-03T01:42:02;0.00;;;0.00;;
38123;SDS011;23934;47.998;9.832;2023-04-03T01:44:29;0.63;;;0.50;;
38123;SDS011;23934;47.998;9.832;2023-04-03T01:46:55;0.00;;;0.00;;
38123;SDS011;23934;47.998;9.832;2023-04-03T01:49:21;4.55;;;1.27;;
38123;SDS011;23934;47.998;9.832;2023-04-03T01:51:47;0.00;;;0.00;;
38123;SDS011;23934;47.998;9.832;2023-04-03T01:54:13;0.00;;;0.00;;
38123;SDS011;23934;47.998;9.832;2023-04-03T01:56:39;0.17;;;0.17;;
38123;SDS011;23934;47.998;9.832;2023-04-03T01:59:05;0.70;;;0.22;;
38123;SDS011;23934;47.998;9.832;2023-04-03T02:01:31;0.00;;;0.00;;
38123;SDS011;23934;47.998;9.832;2023-04-03T02:03:57;0.00;;;0.00;;
38123;SDS011;23934;47.998;9.832;2023-04-03T02:06:23;0.25;;;0.25;;
38123;SDS011;23934;47.998;9.832;2023-04-03T02:08:50;0.00;;;0.00;;
38123;SDS011;23934;47.998;9.832;2023-04-03T02:11:16;0.00;;;0.00;;
38123;SDS011;23934;47.998;9.832;2023-04-03T02:13:42;0.00;;;0.00;;
38123;SDS011;23934;47.998;9.832;2023-04-03T02:16:11;0.45;;;0.45;;
38123;SDS011;23934;47.998;9.832;2023-04-03T02:18:38;3.92;;;2.30;;
38123;SDS011;23934;47.998;9.832;2023-04-03T02:21:04;0.52;;;0.52;;
38123;SDS011;23934;47.998;9.832;2023-04-03T02:23:29;0.00;;;0.00;;
38123;SDS011;23934;47.998;9.832;2023-04-03T02:26:06;3.85;;;1.35;;
38123;SDS011;23934;47.998;9.832;2023-04-03T02:28:32;0.10;;;0.10;;
38123;SDS011;23934;47.998;9.832;2023-04-03T02:30:58;0.68;;;0.68;;
38123;SDS011;23934;47.998;9.832;2023-04-03T02:33:24;0.00;;;0.00;;
38123;SDS011;23934;47.998;9.832;2023-04-03T02:35:56;1.08;;;1.00;;
38123;SDS011;23934;47.998;9.832;2023-04-03T02:38:22;0.00;;;0.00;;
38123;SDS011;23934;47.998;9.832;2023-04-03T02:40:48;0.00;;;0.00;;
38123;SDS011;23934;47.998;9.832;2023-04-03T02:43:14;0.00;;;0.00;;
38123;SDS011;23934;47.998;9.832;2023-04-03T02:45:40;2.13;;;0.95;;
38123;SDS011;23934;47.998;9.832;2023-04-03T02:48:06;3.20;;;0.70;;
38123;SDS011;23934;47.998;9.832;2023-04-03T02:50:32;0.00;;;0.00;;
38123;SDS011;23934;47.998;9.832;2023-04-03T02:52:58;0.10;;;0.10;;
38123;SDS011;23934;47.998;9.832;2023-04-03T02:55:24;0.00;;;0.00;;
38123;SDS011;23934;47.998;9.832;2023-04-03T02:57:50;0.55;;;0.55;;
38123;SDS011;23934;47.998;9.832;2023-04-03T03:00:16;0.00;;;0.00;;
38123;SDS011;23934;47.998;9.832;2023-04-03T03:02:43;0.00;;;0.00;;
38123;SDS011;23934;47.998;9.832;2023-04-03T03:05:09;1.08;;;0.98;;
38123;SDS011;23934;47.998;9.832;2023-04-03T03:07:35;0.57;;;0.52;;
38123;SDS011;23934;47.998;9.832;2023-04-03T03:10:00;0.22;;;0.22;;
38123;SDS011;23934;47.998;9.832;2023-04-03T03:12:26;2.28;;;1.75;;
38123;SDS011;23934;47.998;9.832;2023-04-03T03:14:52;0.05;;;0.05;;
38123;SDS011;23934;47.998;9.832;2023-04-03T03:17:18;2.75;;;1.45;;
38123;SDS011;23934;47.998;9.832;2023-04-03T03:19:44;0.00;;;0.00;;
38123;SDS011;23934;47.998;9.832;2023-04-03T03:22:11;0.00;;;0.00;;
38123;SDS011;23934;47.998;9.832;2023-04-03T03:24:37;0.00;;;0.00;;
38123;SDS011;23934;47.998;9.832;2023-04-03T03:27:02;0.10;;;0.10;;
38123;SDS011;23934;47.998;9.832;2023-04-03T03:29:28;0.00;;;0.00;;
38123;SDS011;23934;47.998;9.832;2023-04-03T03:31:55;0.00;;;0.00;;
38123;SDS011;23934;47.998;9.832;2023-04-03T03:34:21;0.20;;;0.20;;
38123;SDS011;23934;47.998;9.832;2023-04-03T03:36:46;0.00;;;0.00;;
38123;SDS011;23934;47.998;9.832;2023-04-03T03:39:12;0.00;;;0.00;;
38123;SDS011;23934;47.998;9.832;2023-04-03T03:41:38;0.30;;;0.30;;
38123;SDS011;23934;47.998;9.832;2023-04-03T03:44:04;0.43;;;0.43;;
38123;SDS011;23934;47.998;9.832;2023-04-03T03:46:30;0.05;;;0.05;;
38123;SDS011;23934;47.998;9.832;2023-04-03T03:48:56;0.00;;;0.00;;
38123;SDS011;23934;47.998;9.832;2023-04-03T03:51:22;0.47;;;0.47;;
38123;SDS011;23934;47.998;9.832;2023-04-03T03:53:48;0.00;;;0.00;;
38123;SDS011;23934;47.998;9.832;2023-04-03T03:56:14;0.00;;;0.00;;
38123;SDS011;23934;47.998;9.832;2023-04-03T03:58:40;0.00;;;0.00;;
38123;SDS011;23934;47.998;9.832;2023-04-03T04:01:06;0.00;;;0.00;;
38123;SDS011;23934;47.998;9.832;2023-04-03T04:03:32;0.00;;;0.00;;
38123;SDS011;23934;47.998;9.832;2023-04-03T04:05:58;0.10;;;0.10;;
38123;SDS011;23934;47.998;9.832;2023-04-03T04:08:24;0.00;;;0.00;;
38123;SDS011;23934;47.998;9.832;2023-04-03T04:10:51;0.08;;;0.08;;
38123;SDS011;23934;47.998;9.832;2023-04-03T04:13:17;0.00;;;0.00;;
38123;SDS011;23934;47.998;9.832;2023-04-03T04:15:43;0.00;;;0.00;;
38123;SDS011;23934;47.998;9.832;2023-04-03T04:18:09;0.00;;;0.00;;
38123;SDS011;23934;47.998;9.832;2023-04-03T04:20:35;2.17;;;1.10;;
38123;SDS011;23934;47.998;9.832;2023-04-03T04:23:01;0.10;;;0.10;;
38123;SDS011;23934;47.998;9.832;2023-04-03T04:25:27;0.30;;;0.30;;
38123;SDS011;23934;47.998;9.832;2023-04-03T04:27:53;0.00;;;0.00;;
38123;SDS011;23934;47.998;9.832;2023-04-03T04:30:19;0.00;;;0.00;;
38123;SDS011;23934;47.998;9.832;2023-04-03T04:32:45;0.10;;;0.10;;
38123;SDS011;23934;47.998;9.832;2023-04-03T04:35:11;0.00;;;0.00;;
38123;SDS011;23934;47.998;9.832;2023-04-03T04:37:37;0.00;;;0.00;;
38123;SDS011;23934;47.998;9.832;2023-04-03T04:40:03;0.05;;;0.05;;
38123;SDS011;23934;47.998;9.832;2023-04-03T04:42:29;0.00;;;0.00;;
38123;SDS011;23934;47.998;9.832;2023-04-03T04:44:55;0.00;;;0.00;;
38123;SDS011;23934;47.998;9.832;2023-04-03T04:47:21;0.00;;;0.00;;
38123;SDS011;23934;47.998;9.832;2023-04-03T04:49:47;0.00;;;0.00;;
38123;SDS011;23934;47.998;9.832;2023-04-03T04:52:13;0.00;;;0.00;;
38123;SDS011;23934;47.998;9.832;2023-04-03T04:54:39;0.00;;;0.00;;
38123;SDS011;23934;47.998;9.832;2023-04-03T04:57:05;0.00;;;0.00;;
38123;SDS011;23934;47.998;9.832;2023-04-03T04:59:31;0.00;;;0.00;;
38123;SDS011;23934;47.998;9.832;2023-04-03T05:01:57;0.47;;;0.47;;
38123;SDS011;23934;47.998;9.832;2023-04-03T05:04:23;1.85;;;0.82;;
38123;SDS011;23934;47.998;9.832;2023-04-03T05:06:49;1.85;;;0.50;;
38123;SDS011;23934;47.998;9.832;2023-04-03T05:09:15;0.03;;;0.03;;
38123;SDS011;23934;47.998;9.832;2023-04-03T05:11:41;0.35;;;0.35;;
38123;SDS011;23934;47.998;9.832;2023-04-03T05:14:08;0.28;;;0.28;;
38123;SDS011;23934;47.998;9.832;2023-04-03T05:16:34;0.10;;;0.10;;
38123;SDS011;23934;47.998;9.832;2023-04-03T05:19:00;0.00;;;0.00;;
38123;SDS011;23934;47.998;9.832;2023-04-03T05:21:26;1.08;;;0.52;;
38123;SDS011;23934;47.998;9.832;2023-04-03T05:23:56;0.00;;;0.00;;
38123;SDS011;23934;47.998;9.832;2023-04-03T05:26:22;0.00;;;0.00;;
38123;SDS011;23934;47.998;9.832;2023-04-03T05:28:48;0.00;;;0.00;;
38123;SDS011;23934;47.998;9.832;2023-04-03T05:31:14;0.00;;;0.00;;
38123;SDS011;23934;47.998;9.832;2023-04-03T05:33:40;0.00;;;0.00;;
38123;SDS011;23934;47.998;9.832;2023-04-03T05:36:06;0.00;;;0.00;;
38123;SDS011;23934;47.998;9.832;2023-04-03T05:38:32;0.10;;;0.10;;
38123;SDS011;23934;47.998;9.832;2023-04-03T05:40:58;1.05;;;1.02;;
38123;SDS011;23934;47.998;9.832;2023-04-03T05:43:25;0.10;;;0.10;;
38123;SDS011;23934;47.998;9.832;2023-04-03T05:45:51;0.00;;;0.00;;
38123;SDS011;23934;47.998;9.832;2023-04-03T05:48:17;0.05;;;0.05;;
38123;SDS011;23934;47.998;9.832;2023-04-03T05:50:43;0.00;;;0.00;;
38123;SDS011;23934;47.998;9.832;2023-04-03T05:53:15;0.00;;;0.00;;
38123;SDS011;23934;47.998;9.832;2023-04-03T05:55:42;0.00;;;0.00;;
38123;SDS011;23934;47.998;9.832;2023-04-03T05:58:08;0.00;;;0.00;;
38123;SDS011;23934;47.998;9.832;2023-04-03T06:00:34;0.03;;;0.03;;
38123;SDS011;23934;47.998;9.832;2023-04-03T06:03:00;2.05;;;1.17;;
38123;SDS011;23934;47.998;9.832;2023-04-03T06:05:26;0.00;;;0.00;;
38123;SDS011;23934;47.998;9.832;2023-04-03T06:07:52;0.00;;;0.00;;
38123;SDS011;23934;47.998;9.832;2023-04-03T06:10:18;0.00;;;0.00;;
38123;SDS011;23934;47.998;9.832;2023-04-03T06:12:45;0.00;;;0.00;;
38123;SDS011;23934;47.998;9.832;2023-04-03T06:15:11;0.00;;;0.00;;
38123;SDS011;23934;47.998;9.832;2023-04-03T06:17:37;1.73;;;0.93;;
38123;SDS011;23934;47.998;9.832;2023-04-03T06:20:03;1.20;;;1.10;;
38123;SDS011;23934;47.998;9.832;2023-04-03T06:22:29;1.70;;;0.93;;
38123;SDS011;23934;47.998;9.832;2023-04-03T06:24:56;9.70;;;1.67;;
38123;SDS011;23934;47.998;9.832;2023-04-03T06:27:22;3.88;;;1.55;;
38123;SDS011;23934;47.998;9.832;2023-04-03T06:29:48;6.63;;;2.58;;
38123;SDS011;23934;47.998;9.832;2023-04-03T06:32:15;5.28;;;2.65;;
38123;SDS011;23934;47.998;9.832;2023-04-03T06:34:41;4.15;;;1.60;;
38123;SDS011;23934;47.998;9.832;2023-04-03T06:37:12;10.40;;;2.42;;
38123;SDS011;23934;47.998;9.832;2023-04-03T06:39:40;6.93;;;2.42;;
38123;SDS011;23934;47.998;9.832;2023-04-03T06:42:06;6.75;;;2.78;;
38123;SDS011;23934;47.998;9.832;2023-04-03T06:44:32;5.63;;;2.70;;
38123;SDS011;23934;47.998;9.832;2023-04-03T06:46:59;7.15;;;2.67;;
38123;SDS011;23934;47.998;9.832;2023-04-03T06:49:25;3.47;;;1.83;;
38123;SDS011;23934;47.998;9.832;2023-04-03T06:51:51;5.63;;;3.08;;
38123;SDS011;23934;47.998;9.832;2023-04-03T06:54:17;4.38;;;2.53;;
38123;SDS011;23934;47.998;9.832;2023-04-03T06:56:43;5.70;;;1.58;;
38123;SDS011;23934;47.998;9.832;2023-04-03T06:59:10;8.40;;;2.58;;
38123;SDS011;23934;47.998;9.832;2023-04-03T07:01:38;5.13;;;1.98;;
38123;SDS011;23934;47.998;9.832;2023-04-03T07:04:05;3.63;;;1.35;;
38123;SDS011;23934;47.998;9.832;2023-04-03T07:06:31;7.07;;;3.03;;
38123;SDS011;23934;47.998;9.832;2023-04-03T07:08:58;3.65;;;2.05;;
38123;SDS011;23934;47.998;9.832;2023-04-03T07:11:24;5.65;;;2.60;;
38123;SDS011;23934;47.998;9.832;2023-04-03T07:13:51;8.75;;;2.60;;
38123;SDS011;23934;47.998;9.832;2023-04-03T07:16:17;8.75;;;3.15;;
38123;SDS011;23934;47.998;9.832;2023-04-03T07:18:43;8.80;;;3.70;;
38123;SDS011;23934;47.998;9.832;2023-04-03T07:21:08;6.55;;;3.35;;
38123;SDS011;23934;47.998;9.832;2023-04-03T07:23:34;8.07;;;4.03;;
38123;SDS011;23934;47.998;9.832;2023-04-03T07:26:00;7.35;;;3.30;;
38123;SDS011;23934;47.998;9.832;2023-04-03T07:28:27;7.70;;;3.25;;
38123;SDS011;23934;47.998;9.832;2023-04-03T07:30:54;5.47;;;3.13;;
38123;SDS011;23934;47.998;9.832;2023-04-03T07:33:21;10.60;;;3.70;;
38123;SDS011;23934;47.998;9.832;2023-04-03T07:35:47;8.75;;;3.80;;
38123;SDS011;23934;47.998;9.832;2023-04-03T07:38:13;9.40;;;2.80;;
38123;SDS011;23934;47.998;9.832;2023-04-03T07:40:39;9.63;;;4.00;;
38123;SDS011;23934;47.998;9.832;2023-04-03T07:43:06;8.18;;;3.30;;
38123;SDS011;23934;47.998;9.832;2023-04-03T07:45:33;12.20;;;3.80;;
38123;SDS011;23934;47.998;9.832;2023-04-03T07:47:59;7.93;;;4.05;;
38123;SDS011;23934;47.998;9.832;2023-04-03T07:50:26;15.80;;;3.38;;
38123;SDS011;23934;47.998;9.832;2023-04-03T07:52:52;6.30;;;3.47;;
38123;SDS011;23934;47.998;9.832;2023-04-03T07:55:21;9.05;;;3.38;;
38123;SDS011;23934;47.998;9.832;2023-04-03T07:57:47;12.00;;;3.15;;
38123;SDS011;23934;47.998;9.832;2023-04-03T08:00:13;9.13;;;4.15;;
38123;SDS011;23934;47.998;9.832;2023-04-03T08:02:39;9.18;;;3.30;;
38123;SDS011;23934;47.998;9.832;2023-04-03T08:05:05;3.75;;;2.13;;
38123;SDS011;23934;47.998;9.832;2023-04-03T08:07:31;6.63;;;2.72;;
38123;SDS011;23934;47.998;9.832;2023-04-03T08:09:57;9.50;;;2.90;;
38123;SDS011;23934;47.998;9.832;2023-04-03T08:12:23;6.45;;;2.40;;
38123;SDS011;23934;47.998;9.832;2023-04-03T08:14:49;8.98;;;3.65;;
38123;SDS011;23934;47.998;9.832;2023-04-03T08:17:15;7.22;;;2.78;;
38123;SDS011;23934;47.998;9.832;2023-04-03T08:19:41;5.70;;;3.53;;
38123;SDS011;23934;47.998;9.832;2023-04-03T08:22:07;11.55;;;3.80;;
38123;SDS011;23934;47.998;9.832;2023-04-03T08:24:33;7.95;;;3.53;;
38123;SDS011;23934;47.998;9.832;2023-04-03T08:26:59;9.20;;;3.03;;
38123;SDS011;23934;47.998;9.832;2023-04-03T08:29:26;6.85;;;2.75;;
38123;SDS011;23934;47.998;9.832;2023-04-03T08:31:52;6.82;;;2.90;;
38123;SDS011;23934;47.998;9.832;2023-04-03T08:34:18;6.88;;;3.58;;
38123;SDS011;23934;47.998;9.832;2023-04-03T08:36:44;9.05;;;3.35;;
38123;SDS011;23934;47.998;9.832;2023-04-03T08:39:10;7.10;;;3.40;;
38123;SDS011;23934;47.998;9.832;2023-04-03T08:41:38;8.88;;;3.28;;
38123;SDS011;23934;47.998;9.832;2023-04-03T08:46:50;6.55;;;3.15;;
38123;SDS011;23934;47.998;9.832;2023-04-03T08:49:24;7.38;;;3.55;;
38123;SDS011;23934;47.998;9.832;2023-04-03T08:51:52;5.78;;;2.40;;
38123;SDS011;23934;47.998;9.832;2023-04-03T08:54:24;3.65;;;2.28;;
38123;SDS011;23934;47.998;9.832;2023-04-03T08:56:51;9.40;;;4.20;;
38123;SDS011;23934;47.998;9.832;2023-04-03T08:59:18;6.30;;;3.05;;
38123;SDS011;23934;47.998;9.832;2023-04-03T09:01:47;10.77;;;3.50;;
38123;SDS011;23934;47.998;9.832;2023-04-03T09:04:14;12.50;;;3.92;;
38123;SDS011;23934;47.998;9.832;2023-04-03T09:06:40;9.60;;;3.63;;
38123;SDS011;23934;47.998;9.832;2023-04-03T09:09:11;7.20;;;3.20;;
38123;SDS011;23934;47.998;9.832;2023-04-03T09:14:26;6.18;;;2.80;;
38123;SDS011;23934;47.998;9.832;2023-04-03T09:16:59;8.60;;;3.20;;
38123;SDS011;23934;47.998;9.832;2023-04-03T09:21:59;6.72;;;2.55;;
38123;SDS011;23934;47.998;9.832;2023-04-03T09:24:28;4.40;;;2.55;;
38123;SDS011;23934;47.998;9.832;2023-04-03T09:29:24;8.07;;;3.58;;
38123;SDS011;23934;47.998;9.832;2023-04-03T09:31:58;5.40;;;2.85;;
38123;SDS011;23934;47.998;9.832;2023-04-03T09:34:32;5.32;;;2.50;;
38123;SDS011;23934;47.998;9.832;2023-04-03T09:37:01;6.75;;;2.80;;
38123;SDS011;23934;47.998;9.832;2023-04-03T09:39:31;7.60;;;3.45;;
38123;SDS011;23934;47.998;9.832;2023-04-03T09:42:14;5.57;;;2.17;;
38123;SDS011;23934;47.998;9.832;2023-04-03T09:44:42;6.35;;;3.10;;
38123;SDS011;23934;47.998;9.832;2023-04-03T09:49:45;6.97;;;2.70;;
38123;SDS011;23934;47.998;9.832;2023-04-03T09:52:23;4.65;;;2.75;;
38123;SDS011;23934;47.998;9.832;2023-04-03T09:54:49;7.93;;;2.70;;
38123;SDS011;23934;47.998;9.832;2023-04-03T09:57:15;10.80;;;3.13;;
38123;SDS011;23934;47.998;9.832;2023-04-03T09:59:44;5.85;;;2.70;;
38123;SDS011;23934;47.998;9.832;2023-04-03T10:04:38;4.97;;;2.28;;
38123;SDS011;23934;47.998;9.832;2023-04-03T10:07:05;6.45;;;2.97;;
38123;SDS011;23934;47.998;9.832;2023-04-03T10:09:55;3.55;;;1.92;;
38123;SDS011;23934;47.998;9.832;2023-04-03T10:12:21;6.78;;;2.53;;
38123;SDS011;23934;47.998;9.832;2023-04-03T10:22:36;6.85;;;3.08;;
38123;SDS011;23934;47.998;9.832;2023-04-03T10:25:12;6.07;;;2.42;;
38123;SDS011;23934;47.998;9.832;2023-04-03T10:27:59;6.63;;;2.50;;
38123;SDS011;23934;47.998;9.832;2023-04-03T10:40:36;3.60;;;1.63;;
38123;SDS011;23934;47.998;9.832;2023-04-03T10:50:45;9.98;;;3.38;;
38123;SDS011;23934;47.998;9.832;2023-04-03T10:55:51;3.20;;;1.60;;
38123;SDS011;23934;47.998;9.832;2023-04-03T10:58:53;4.53;;;2.30;;
38123;SDS011;23934;47.998;9.832;2023-04-03T11:01:16;5.75;;;2.17;;
38123;SDS011;23934;47.998;9.832;2023-04-03T11:03:45;6.03;;;2.10;;
38123;SDS011;23934;47.998;9.832;2023-04-03T11:06:14;5.30;;;2.58;;
38123;SDS011;23934;47.998;9.832;2023-04-03T11:11:17;7.25;;;2.90;;
38123;SDS011;23934;47.998;9.832;2023-04-03T11:16:26;2.35;;;1.50;;
38123;SDS011;23934;47.998;9.832;2023-04-03T11:23:54;11.45;;;3.70;;
38123;SDS011;23934;47.998;9.832;2023-04-03T11:26:26;4.78;;;2.60;;
38123;SDS011;23934;47.998;9.832;2023-04-03T11:31:23;4.78;;;2.15;;
38123;SDS011;23934;47.998;9.832;2023-04-03T11:36:24;6.30;;;2.30;;
38123;SDS011;23934;47.998;9.832;2023-04-03T11:38:52;1.83;;;1.17;;
38123;SDS011;23934;47.998;9.832;2023-04-03T11:41:24;4.63;;;2.50;;
38123;SDS011;23934;47.998;9.832;2023-04-03T11:44:02;3.92;;;2.13;;
38123;SDS011;23934;47.998;9.832;2023-04-03T11:51:57;4.10;;;2.25;;
38123;SDS011;23934;47.998;9.832;2023-04-03T11:54:42;5.50;;;2.30;;
38123;SDS011;23934;47.998;9.832;2023-04-03T11:59:53;5.72;;;2.60;;
38123;SDS011;23934;47.998;9.832;2023-04-03T12:02:36;7.07;;;2.10;;
38123;SDS011;23934;47.998;9.832;2023-04-03T12:08:15;7.68;;;3.05;;
38123;SDS011;23934;47.998;9.832;2023-04-03T12:10:42;3.20;;;1.83;;
38123;SDS011;23934;47.998;9.832;2023-04-03T12:13:15;4.13;;;2.08;;
38123;SDS011;23934;47.998;9.832;2023-04-03T12:15:49;3.60;;;1.75;;
38123;SDS011;23934;47.998;9.832;2023-04-03T12:21:00;5.65;;;1.77;;
38123;SDS011;23934;47.998;9.832;2023-04-03T12:23:55;3.17;;;2.00;;
38123;SDS011;23934;47.998;9.832;2023-04-03T12:28:40;2.90;;;1.83;;
38123;SDS011;23934;47.998;9.832;2023-04-03T12:31:08;6.85;;;2.08;;
38123;SDS011;23934;47.998;9.832;2023-04-03T12:44:27;3.33;;;2.10;;
38123;SDS011;23934;47.998;9.832;2023-04-03T12:46:58;8.88;;;3.35;;
38123;SDS011;23934;47.998;9.832;2023-04-03T12:51:55;6.47;;;2.70;;
38123;SDS011;23934;47.998;9.832;2023-04-03T12:54:32;4.75;;;2.45;;
38123;SDS011;23934;47.998;9.832;2023-04-03T12:59:36;5.88;;;2.45;;
38123;SDS011;23934;47.998;9.832;2023-04-03T13:02:03;5.22;;;2.70;;
38123;SDS011;23934;47.998;9.832;2023-04-03T13:04:37;4.50;;;2.35;;
38123;SDS011;23934;47.998;9.832;2023-04-03T13:07:04;5.60;;;2.25;;
38123;SDS011;23934;47.998;9.832;2023-04-03T13:09:31;4.88;;;2.08;;
38123;SDS011;23934;47.998;9.832;2023-04-03T13:11:58;3.78;;;2.17;;
38123;SDS011;23934;47.998;9.832;2023-04-03T13:14:25;9.18;;;1.92;;
38123;SDS011;23934;47.998;9.832;2023-04-03T13:19:37;8.02;;;2.55;;
38123;SDS011;23934;47.998;9.832;2023-04-03T13:22:05;4.93;;;2.38;;
38123;SDS011;23934;47.998;9.832;2023-04-03T13:24:32;5.95;;;3.03;;
38123;SDS011;23934;47.998;9.832;2023-04-03T13:26:59;5.68;;;1.65;;
38123;SDS011;23934;47.998;9.832;2023-04-03T13:29:35;8.63;;;2.17;;
38123;SDS011;23934;47.998;9.832;2023-04-03T13:32:02;3.47;;;2.00;;
38123;SDS011;23934;47.998;9.832;2023-04-03T13:34:29;3.22;;;2.15;;
38123;SDS011;23934;47.998;9.832;2023-04-03T13:37:00;3.00;;;1.77;;
38123;SDS011;23934;47.998;9.832;2023-04-03T13:39:29;5.38;;;2.80;;
38123;SDS011;23934;47.998;9.832;2023-04-03T13:41:59;3.85;;;2.20;;
38123;SDS011;23934;47.998;9.832;2023-04-03T13:44:34;4.93;;;1.92;;
38123;SDS011;23934;47.998;9.832;2023-04-03T13:47:20;4.07;;;2.08;;
38123;SDS011;23934;47.998;9.832;2023-04-03T13:50:03;6.30;;;2.63;;
38123;SDS011;23934;47.998;9.832;2023-04-03T13:52:32;5.93;;;2.03;;
38123;SDS011;23934;47.998;9.832;2023-04-03T13:55:03;3.97;;;1.73;;
38123;SDS011;23934;47.998;9.832;2023-04-03T13:57:37;5.00;;;2.38;;
38123;SDS011;23934;47.998;9.832;2023-04-03T14:00:48;4.65;;;2.70;;
38123;SDS011;23934;47.998;9.832;2023-04-03T14:05:58;8.75;;;2.45;;
38123;SDS011;23934;47.998;9.832;2023-04-03T14:08:25;3.78;;;2.65;;
38123;SDS011;23934;47.998;9.832;2023-04-03T14:10:52;4.60;;;2.42;;
38123;SDS011;23934;47.998;9.832;2023-04-03T14:13:19;6.07;;;2.55;;
38123;SDS011;23934;47.998;9.832;2023-04-03T14:15:45;5.60;;;2.80;;
38123;SDS011;23934;47.998;9.832;2023-04-03T14:18:14;13.90;;;3.97;;
38123;SDS011;23934;47.998;9.832;2023-04-03T14:20:40;3.53;;;2.30;;
38123;SDS011;23934;47.998;9.832;2023-04-03T14:23:06;4.65;;;2.35;;
38123;SDS011;23934;47.998;9.832;2023-04-03T14:25:32;4.63;;;2.95;;
38123;SDS011;23934;47.998;9.832;2023-04-03T14:27:58;16.98;;;4.03;;
38123;SDS011;23934;47.998;9.832;2023-04-03T14:30:27;4.32;;;2.60;;
38123;SDS011;23934;47.998;9.832;2023-04-03T14:32:53;8.30;;;2.97;;
38123;SDS011;23934;47.998;9.832;2023-04-03T14:35:20;7.40;;;2.80;;
38123;SDS011;23934;47.998;9.832;2023-04-03T14:37:46;7.05;;;2.45;;
38123;SDS011;23934;47.998;9.832;2023-04-03T14:40:14;5.05;;;2.60;;
38123;SDS011;23934;47.998;9.832;2023-04-03T14:42:40;4.38;;;2.67;;
38123;SDS011;23934;47.998;9.832;2023-04-03T14:45:09;8.60;;;2.72;;
38123;SDS011;23934;47.998;9.832;2023-04-03T14:47:37;4.53;;;2.53;;
38123;SDS011;23934;47.998;9.832;2023-04-03T14:50:06;5.15;;;2.00;;
38123;SDS011;23934;47.998;9.832;2023-04-03T14:52:34;2.85;;;2.05;;
38123;SDS011;23934;47.998;9.832;2023-04-03T14:55:01;8.20;;;2.80;;
38123;SDS011;23934;47.998;9.832;2023-04-03T14:57:28;3.85;;;2.28;;
38123;SDS011;23934;47.998;9.832;2023-04-03T14:59:54;6.20;;;2.67;;
38123;SDS011;23934;47.998;9.832;2023-04-03T15:02:25;7.18;;;2.85;;
38123;SDS011;23934;47.998;9.832;2023-04-03T15:04:52;6.97;;;2.67;;
38123;SDS011;23934;47.998;9.832;2023-04-03T15:07:18;4.93;;;2.58;;
38123;SDS011;23934;47.998;9.832;2023-04-03T15:09:44;6.95;;;2.17;;
38123;SDS011;23934;47.998;9.832;2023-04-03T15:12:10;11.43;;;2.70;;
38123;SDS011;23934;47.998;9.832;2023-04-03T15:14:37;6.03;;;2.60;;
38123;SDS011;23934;47.998;9.832;2023-04-03T15:17:03;4.90;;;2.47;;
38123;SDS011;23934;47.998;9.832;2023-04-03T15:19:31;5.25;;;2.33;;
38123;SDS011;23934;47.998;9.832;2023-04-03T15:22:01;5.70;;;2.28;;
38123;SDS011;23934;47.998;9.832;2023-04-03T15:24:27;13.32;;;2.75;;
38123;SDS011;23934;47.998;9.832;2023-04-03T15:26:54;5.45;;;2.55;;
38123;SDS011;23934;47.998;9.832;2023-04-03T15:29:20;4.32;;;2.30;;
38123;SDS011;23934;47.998;9.832;2023-04-03T15:31:46;6.75;;;3.17;;
38123;SDS011;23934;47.998;9.832;2023-04-03T15:34:13;5.22;;;1.83;;
38123;SDS011;23934;47.998;9.832;2023-04-03T15:36:38;7.25;;;2.80;;
38123;SDS011;23934;47.998;9.832;2023-04-03T15:39:05;5.68;;;1.95;;
38123;SDS011;23934;47.998;9.832;2023-04-03T15:41:31;7.03;;;1.98;;
38123;SDS011;23934;47.998;9.832;2023-04-03T15:43:57;4.95;;;2.60;;
38123;SDS011;23934;47.998;9.832;2023-04-03T15:46:23;5.38;;;2.40;;
38123;SDS011;23934;47.998;9.832;2023-04-03T15:48:48;4.13;;;1.75;;
38123;SDS011;23934;47.998;9.832;2023-04-03T15:51:14;3.25;;;1.90;;
38123;SDS011;23934;47.998;9.832;2023-04-03T15:53:40;18.70;;;3.30;;
38123;SDS011;23934;47.998;9.832;2023-04-03T15:56:07;5.07;;;2.28;;
38123;SDS011;23934;47.998;9.832;2023-04-03T15:58:34;3.85;;;2.50;;
38123;SDS011;23934;47.998;9.832;2023-04-03T16:01:00;4.90;;;2.20;;
38123;SDS011;23934;47.998;9.832;2023-04-03T16:03:27;4.53;;;2.10;;
38123;SDS011;23934;47.998;9.832;2023-04-03T16:05:53;11.02;;;2.92;;
38123;SDS011;23934;47.998;9.832;2023-04-03T16:08:19;9.63;;;1.90;;
38123;SDS011;23934;47.998;9.832;2023-04-03T16:10:45;3.88;;;2.30;;
38123;SDS011;23934;47.998;9.832;2023-04-03T16:13:12;3.60;;;1.85;;
38123;SDS011;23934;47.998;9.832;2023-04-03T16:15:38;3.47;;;1.85;;
38123;SDS011;23934;47.998;9.832;2023-04-03T16:18:04;2.88;;;1.95;;
38123;SDS011;23934;47.998;9.832;2023-04-03T16:20:30;4.80;;;1.67;;
38123;SDS011;23934;47.998;9.832;2023-04-03T16:22:59;6.38;;;1.75;;
38123;SDS011;23934;47.998;9.832;2023-04-03T16:25:25;2.63;;;1.73;;
38123;SDS011;23934;47.998;9.832;2023-04-03T16:27:51;4.88;;;2.45;;
38123;SDS011;23934;47.998;9.832;2023-04-03T16:30:17;4.85;;;1.30;;
38123;SDS011;23934;47.998;9.832;2023-04-03T16:32:43;5.85;;;1.65;;